Time;durP1;ratioP1;P1;durP2;ratioP2;P2;SDS_P1;SDS_P2;PMS_P1;PMS_P2;Temp;Humidity;BMP_temperature;BMP_pressure;BME280_temperature;BME280_humidity;BME280_pressure;Samples;Min_cycle;Max_cycle;Signal;HPM_P1;HPM_P2
2023/04/13 00:00:06;;;;;;;29.50;15.35;;;;;;;-144.57;100.00;62443.72;5069760;28;20051;-65
2023/04/13 00:02:32;;;;;;;24.98;15.02;;;;;;;-144.57;100.00;62443.72;5070936;28;20032;-66
2023/04/13 00:04:59;;;;;;;24.08;15.65;;;;;;;-144.57;100.00;62443.72;5068939;28;20044;-68
2023/04/13 00:07:26;;;;;;;22.08;14.00;;;;;;;-144.57;100.00;62443.72;5071017;28;20052;-67
2023/04/13 00:09:52;;;;;;;25.90;15.23;;;;;;;-144.57;100.00;62443.72;5071065;28;20048;-67
2023/04/13 00:12:20;;;;;;;26.50;14.68;;;;;;;-144.57;100.00;62443.72;5069884;28;20051;-65
2023/04/13 00:14:49;;;;;;;24.48;14.18;;;;;;;-144.57;100.00;62443.72;5067212;28;20080;-65
2023/04/13 00:17:15;;;;;;;24.90;15.18;;;;;;;-144.57;100.00;62443.72;5059800;28;20048;-66
2023/04/13 00:19:41;;;;;;;20.23;13.10;;;;;;;-144.57;100.00;62443.72;5058287;28;20048;-65
2023/04/13 00:22:08;;;;;;;24.88;15.18;;;;;;;-144.57;100.00;62443.72;5060074;28;20037;-65
2023/04/13 00:24:35;;;;;;;24.65;15.50;;;;;;;-144.57;100.00;62443.72;5059462;28;20383;-66
2023/04/13 00:27:01;;;;;;;24.10;14.98;;;;;;;-144.57;100.00;62443.72;5061434;28;20048;-66
2023/04/13 00:29:28;;;;;;;21.75;14.52;;;;;;;-144.57;100.00;62443.72;5065256;28;20246;-64
2023/04/13 00:31:54;;;;;;;22.17;14.57;;;;;;;-144.57;100.00;62443.72;5068563;28;20109;-66
2023/04/13 00:34:20;;;;;;;24.58;14.45;;;;;;;-144.57;100.00;62443.72;5072419;28;20048;-65
2023/04/13 00:36:45;;;;;;;29.85;15.75;;;;;;;-144.57;100.00;62443.72;5072368;28;20117;-65
2023/04/13 00:39:12;;;;;;;25.10;15.60;;;;;;;-144.57;100.00;62443.72;5069556;28;20497;-64
2023/04/13 00:41:38;;;;;;;22.90;15.13;;;;;;;-144.57;100.00;62443.72;5072915;28;20531;-65
2023/04/13 00:44:07;;;;;;;23.40;14.63;;;;;;;-144.57;100.00;62443.72;5036676;28;20203;-65
2023/04/13 00:46:33;;;;;;;21.67;14.45;;;;;;;-144.57;100.00;62443.72;5066116;28;20048;-65
2023/04/13 00:49:00;;;;;;;21.42;14.98;;;;;;;-144.57;100.00;62443.72;5073211;28;20167;-65
2023/04/13 00:51:29;;;;;;;29.17;15.05;;;;;;;-144.57;100.00;62443.72;5074689;28;20462;-64
2023/04/13 00:53:56;;;;;;;25.15;15.57;;;;;;;-144.57;100.00;62443.72;5073184;28;20393;-65
2023/04/13 00:56:26;;;;;;;21.25;13.95;;;;;;;-144.57;100.00;62443.72;5073115;28;20497;-65
2023/04/13 00:58:55;;;;;;;23.75;15.43;;;;;;;-144.57;100.00;62443.72;5072916;28;20130;-65
2023/04/13 01:01:20;;;;;;;24.58;15.77;;;;;;;-144.57;100.00;62443.72;5066931;28;20452;-64
2023/04/13 01:03:47;;;;;;;22.95;14.60;;;;;;;-144.57;100.00;62443.72;5061473;28;20037;-64
2023/04/13 01:06:20;;;;;;;24.70;15.13;;;;;;;-144.57;100.00;62443.72;5062463;28;20037;-66
2023/04/13 01:09:01;;;;;;;24.90;16.02;;;;;;;-144.57;100.00;62443.72;5063341;28;20123;-65
2023/04/13 01:11:39;;;;;;;26.90;14.80;;;;;;;-144.57;100.00;62443.72;5063045;28;20068;-64
2023/04/13 01:14:36;;;;;;;23.30;14.93;;;;;;;-144.57;100.00;62443.72;5037095;28;20037;-65
2023/04/13 01:17:09;;;;;;;26.15;15.35;;;;;;;-144.57;100.00;62443.72;5047130;28;20090;-66
2023/04/13 01:19:51;;;;;;;28.90;15.45;;;;;;;-144.57;100.00;62443.72;5047459;28;20041;-65
2023/04/13 01:22:22;;;;;;;26.88;15.15;;;;;;;-144.57;100.00;62443.72;5046266;28;20423;-65
2023/04/13 01:25:10;;;;;;;25.10;15.93;;;;;;;-144.57;100.00;62443.72;5061262;28;20044;-63
2023/04/13 01:27:47;;;;;;;25.88;14.38;;;;;;;-144.57;100.00;62443.72;5040994;28;20048;-66
2023/04/13 01:30:15;;;;;;;25.67;13.77;;;;;;;-144.57;100.00;62443.72;5035897;28;20048;-65
2023/04/13 01:32:42;;;;;;;24.08;14.07;;;;;;;-144.57;100.00;62443.72;5053051;28;20494;-66
2023/04/13 01:35:09;;;;;;;23.27;14.88;;;;;;;-144.57;100.00;62443.72;5055241;28;20040;-65
2023/04/13 01:37:42;;;;;;;24.70;14.63;;;;;;;-144.57;100.00;62443.72;5038489;28;20043;-65
2023/04/13 01:40:11;;;;;;;21.30;13.63;;;;;;;-144.57;100.00;62443.72;5018563;28;20155;-64
2023/04/13 01:42:42;;;;;;;21.77;14.65;;;;;;;-144.57;100.00;62443.72;5036350;28;20132;-65
2023/04/13 01:45:12;;;;;;;22.85;15.15;;;;;;;-144.57;100.00;62443.72;5071485;28;20048;-65
2023/04/13 01:47:43;;;;;;;23.00;14.40;;;;;;;-144.57;100.00;62443.72;5055702;28;20048;-65
2023/04/13 01:50:51;;;;;;;21.15;14.02;;;;;;;-144.57;100.00;62443.72;5014408;28;20049;-65
2023/04/13 01:53:30;;;;;;;23.15;14.77;;;;;;;-144.57;100.00;62443.72;5053517;28;20044;-64
2023/04/13 01:55:56;;;;;;;26.55;14.80;;;;;;;-144.57;100.00;62443.72;5072099;28;20097;-66
2023/04/13 01:58:26;;;;;;;25.08;15.30;;;;;;;-144.57;100.00;62443.72;5051624;28;20057;-64
2023/04/13 02:00:57;;;;;;;25.20;15.45;;;;;;;-144.57;100.00;62443.72;5051253;28;20123;-64
2023/04/13 02:03:22;;;;;;;21.98;14.45;;;;;;;-144.57;100.00;62443.72;5059573;28;20526;-66
2023/04/13 02:05:49;;;;;;;22.95;14.55;;;;;;;-144.57;100.00;62443.72;5072037;28;20053;-65
2023/04/13 02:08:17;;;;;;;21.50;14.52;;;;;;;-144.57;100.00;62443.72;5071766;28;20044;-64
2023/04/13 02:10:45;;;;;;;22.73;14.65;;;;;;;-144.57;100.00;62443.72;5071967;28;20040;-64
2023/04/13 02:13:12;;;;;;;25.10;15.38;;;;;;;-144.57;100.00;62443.72;5071742;28;20085;-64
2023/04/13 02:15:38;;;;;;;22.65;14.35;;;;;;;-144.57;100.00;62443.72;5071873;28;20036;-65
2023/04/13 02:18:04;;;;;;;22.15;14.55;;;;;;;-144.57;100.00;62443.72;5071053;28;20520;-66
2023/04/13 02:20:43;;;;;;;24.40;14.90;;;;;;;-144.57;100.00;62443.72;5054350;28;20041;-66
2023/04/13 02:23:10;;;;;;;24.75;15.90;;;;;;;-144.57;100.00;62443.72;5071400;28;20406;-65
2023/04/13 02:25:36;;;;;;;23.98;15.63;;;;;;;-144.57;100.00;62443.72;5071439;28;20051;-64
2023/04/13 02:28:03;;;;;;;20.83;14.48;;;;;;;-144.57;100.00;62443.72;5054348;28;20040;-65
2023/04/13 02:30:29;;;;;;;25.90;15.18;;;;;;;-144.57;100.00;62443.72;5038031;28;20043;-65
2023/04/13 02:32:55;;;;;;;26.30;14.65;;;;;;;-144.57;100.00;62443.72;5072152;28;20422;-66
2023/04/13 02:35:21;;;;;;;21.13;14.43;;;;;;;-144.57;100.00;62443.72;5054432;28;20189;-65
2023/04/13 02:37:47;;;;;;;24.00;14.93;;;;;;;-144.57;100.00;62443.72;5054521;28;20037;-65
2023/04/13 02:40:14;;;;;;;21.38;15.20;;;;;;;-144.57;100.00;62443.72;5072504;28;20114;-65
2023/04/13 02:42:40;;;;;;;23.15;16.27;;;;;;;-144.57;100.00;62443.72;5071397;28;20064;-65
2023/04/13 02:45:13;;;;;;;23.95;14.73;;;;;;;-144.57;100.00;62443.72;5037869;28;20048;-65
2023/04/13 02:47:39;;;;;;;26.15;14.75;;;;;;;-144.57;100.00;62443.72;5071129;28;20049;-64
2023/04/13 02:50:05;;;;;;;21.63;14.48;;;;;;;-144.57;100.00;62443.72;5070588;28;20049;-65
2023/04/13 02:52:43;;;;;;;24.27;15.45;;;;;;;-144.57;100.00;62443.72;5069807;28;20036;-65
2023/04/13 02:55:09;;;;;;;23.70;15.23;;;;;;;-144.57;100.00;62443.72;5053958;28;20052;-64
2023/04/13 02:58:03;;;;;;;24.90;14.73;;;;;;;-144.57;100.00;62443.72;5068300;28;20060;-65
2023/04/13 03:00:31;;;;;;;24.05;14.30;;;;;;;-144.57;100.00;62443.72;5050862;28;20515;-64
2023/04/13 03:03:02;;;;;;;23.73;13.80;;;;;;;-144.57;100.00;62443.72;5050688;28;20041;-63
2023/04/13 03:05:32;;;;;;;26.58;14.63;;;;;;;-144.57;100.00;62443.72;5050890;28;20506;-64
2023/04/13 03:07:59;;;;;;;22.10;14.32;;;;;;;-144.57;100.00;62443.72;5050497;28;20131;-67
2023/04/13 03:10:26;;;;;;;24.42;15.30;;;;;;;-144.57;100.00;62443.72;5033549;28;20075;-64
2023/04/13 03:12:56;;;;;;;25.98;15.02;;;;;;;-144.57;100.00;62443.72;5034131;28;20036;-64
2023/04/13 03:15:22;;;;;;;23.80;14.27;;;;;;;-144.57;100.00;62443.72;5051686;28;20517;-65
2023/04/13 03:17:48;;;;;;;21.70;14.65;;;;;;;-144.57;100.00;62443.72;5033593;28;20076;-65
2023/04/13 03:20:21;;;;;;;26.20;15.27;;;;;;;-144.57;100.00;62443.72;5049501;28;20132;-66
2023/04/13 03:22:54;;;;;;;20.42;14.25;;;;;;;-144.57;100.00;62443.72;5051548;28;20417;-66
2023/04/13 03:25:21;;;;;;;23.95;14.98;;;;;;;-144.57;100.00;62443.72;5050276;28;20071;-65
2023/04/13 03:27:47;;;;;;;23.02;14.32;;;;;;;-144.57;100.00;62443.72;5017547;28;20041;-67
2023/04/13 03:30:17;;;;;;;27.33;14.63;;;;;;;-144.57;100.00;62443.72;5049996;28;20086;-65
2023/04/13 03:32:51;;;;;;;25.65;14.63;;;;;;;-144.57;100.00;62443.72;5017210;28;20033;-65
2023/04/13 03:35:19;;;;;;;21.52;13.98;;;;;;;-144.57;100.00;62443.72;5033575;28;20053;-65
2023/04/13 03:37:45;;;;;;;22.80;14.98;;;;;;;-144.57;100.00;62443.72;5051692;28;20056;-65
2023/04/13 03:40:32;;;;;;;20.80;14.02;;;;;;;-144.57;100.00;62443.72;5036353;28;20037;-67
2023/04/13 03:42:58;;;;;;;22.52;15.10;;;;;;;-144.57;100.00;62443.72;5050084;28;20080;-65
2023/04/13 03:45:27;;;;;;;27.27;14.93;;;;;;;-144.57;100.00;62443.72;5050046;28;20049;-64
2023/04/13 03:47:56;;;;;;;21.83;14.53;;;;;;;-144.57;100.00;62443.72;5049983;28;20060;-66
2023/04/13 03:50:24;;;;;;;25.45;14.85;;;;;;;-144.57;100.00;62443.72;5033534;28;20131;-64
2023/04/13 03:52:51;;;;;;;23.42;14.80;;;;;;;-144.57;100.00;62443.72;5051013;28;20048;-65
2023/04/13 03:55:18;;;;;;;21.75;14.90;;;;;;;-144.57;100.00;62443.72;5051330;28;20577;-65
2023/04/13 03:57:48;;;;;;;22.13;14.63;;;;;;;-144.57;100.00;62443.72;5049697;28;20115;-65
2023/04/13 04:00:18;;;;;;;21.48;13.77;;;;;;;-144.57;100.00;62443.72;5033641;28;20299;-65
2023/04/13 04:02:55;;;;;;;21.42;14.98;;;;;;;-144.57;100.00;62443.72;5049154;28;20045;-63
2023/04/13 04:05:29;;;;;;;29.80;15.05;;;;;;;-144.57;100.00;62443.72;5049633;28;20075;-65
2023/04/13 04:08:00;;;;;;;26.42;15.02;;;;;;;-144.57;100.00;62443.72;5050011;28;20437;-65
2023/04/13 04:10:27;;;;;;;23.08;14.65;;;;;;;-144.57;100.00;62443.72;5033038;28;20045;-66
2023/04/13 04:12:56;;;;;;;25.83;15.35;;;;;;;-144.57;100.00;62443.72;5049947;28;20037;-66
2023/04/13 04:15:23;;;;;;;23.33;14.70;;;;;;;-144.57;100.00;62443.72;5049379;28;20114;-66
2023/04/13 04:17:56;;;;;;;25.00;15.45;;;;;;;-144.57;100.00;62443.72;5034018;28;20040;-64
2023/04/13 04:20:22;;;;;;;24.17;14.45;;;;;;;-144.57;100.00;62443.72;5049329;28;20510;-68
2023/04/13 04:22:50;;;;;;;28.35;15.55;;;;;;;-144.57;100.00;62443.72;5050826;28;20093;-64
2023/04/13 04:25:20;;;;;;;26.65;15.73;;;;;;;-144.57;100.00;62443.72;5032642;28;20077;-65
2023/04/13 04:27:51;;;;;;;22.95;14.88;;;;;;;-144.57;100.00;62443.72;5034336;28;20436;-66
2023/04/13 04:30:20;;;;;;;23.10;15.13;;;;;;;-144.57;100.00;62443.72;5016735;28;20202;-64
2023/04/13 04:32:47;;;;;;;31.05;15.85;;;;;;;-144.57;100.00;62443.72;5056727;28;20075;-65
2023/04/13 04:35:24;;;;;;;27.85;16.23;;;;;;;-144.57;100.00;62443.72;5069494;28;20055;-65
2023/04/13 04:37:54;;;;;;;26.48;15.25;;;;;;;-144.57;100.00;62443.72;5069588;28;20516;-66
2023/04/13 04:40:21;;;;;;;23.73;15.48;;;;;;;-144.57;100.00;62443.72;5049230;28;20047;-64
2023/04/13 04:42:47;;;;;;;23.10;15.32;;;;;;;-144.57;100.00;62443.72;5049427;28;20081;-63
2023/04/13 04:45:26;;;;;;;26.30;15.40;;;;;;;-144.57;100.00;62443.72;5062237;28;20053;-63
2023/04/13 04:47:56;;;;;;;25.58;16.02;;;;;;;-144.57;100.00;62443.72;5069584;28;20040;-64
2023/04/13 04:50:24;;;;;;;24.80;15.85;;;;;;;-144.57;100.00;62443.72;5070589;28;20052;-65
2023/04/13 04:52:58;;;;;;;27.75;15.80;;;;;;;-144.57;100.00;62443.72;5069199;28;20537;-64
2023/04/13 04:55:24;;;;;;;28.10;15.68;;;;;;;-144.57;100.00;62443.72;5052332;28;20047;-65
2023/04/13 04:57:50;;;;;;;25.83;14.55;;;;;;;-144.57;100.00;62443.72;5052436;28;20048;-64
2023/04/13 05:00:18;;;;;;;24.90;14.98;;;;;;;-144.57;100.00;62443.72;5069062;28;20045;-67
2023/04/13 05:03:06;;;;;;;21.05;14.77;;;;;;;-144.57;100.00;62443.72;5066408;28;20585;-64
2023/04/13 05:05:32;;;;;;;23.05;15.07;;;;;;;-144.57;100.00;62443.72;5068858;28;20072;-66
2023/04/13 05:08:04;;;;;;;23.30;14.60;;;;;;;-144.57;100.00;62443.72;5070453;28;20044;-65
2023/04/13 05:10:30;;;;;;;23.30;15.25;;;;;;;-144.57;100.00;62443.72;5068539;28;20052;-65
2023/04/13 05:12:57;;;;;;;24.30;14.45;;;;;;;-144.57;100.00;62443.72;5069056;28;20040;-65
2023/04/13 05:15:24;;;;;;;27.17;14.98;;;;;;;-144.57;100.00;62443.72;5054915;28;20058;-63
2023/04/13 05:17:49;;;;;;;21.02;13.88;;;;;;;-144.57;100.00;62443.72;5063702;28;20056;-70
2023/04/13 05:20:18;;;;;;;23.23;14.63;;;;;;;-144.57;100.00;62443.72;5069423;28;20044;-61
2023/04/13 05:22:58;;;;;;;27.00;14.73;;;;;;;-144.57;100.00;62443.72;5072197;28;20041;-63
2023/04/13 05:25:23;;;;;;;21.98;13.32;;;;;;;-144.57;100.00;62443.72;5058695;28;20045;-63
2023/04/13 05:27:50;;;;;;;20.42;13.35;;;;;;;-144.57;100.00;62443.72;5062286;28;20068;-64
2023/04/13 05:30:17;;;;;;;21.90;13.82;;;;;;;-144.57;100.00;62443.72;5043388;28;20064;-62
2023/04/13 05:32:43;;;;;;;19.20;13.35;;;;;;;-144.57;100.00;62443.72;5036285;28;20079;-62
2023/04/13 05:35:10;;;;;;;31.15;14.65;;;;;;;-144.57;100.00;62443.72;5041639;28;20068;-65
2023/04/13 05:37:38;;;;;;;19.90;12.65;;;;;;;-144.57;100.00;62443.72;5052843;28;20032;-65
2023/04/13 05:40:11;;;;;;;19.15;12.35;;;;;;;-144.57;100.00;62443.72;5041285;28;20572;-66
2023/04/13 05:42:37;;;;;;;21.98;12.23;;;;;;;-144.57;100.00;62443.72;5051900;28;20056;-65
2023/04/13 05:45:08;;;;;;;23.48;12.00;;;;;;;-144.57;100.00;62443.72;5069264;28;20049;-65
2023/04/13 05:47:38;;;;;;;20.05;13.27;;;;;;;-144.57;100.00;62443.72;5065627;28;20028;-62
2023/04/13 05:50:11;;;;;;;20.85;12.93;;;;;;;-144.57;100.00;62443.72;5029232;28;20052;-63
2023/04/13 05:52:39;;;;;;;21.10;11.57;;;;;;;-144.57;100.00;62443.72;5036831;28;20041;-63
2023/04/13 05:55:06;;;;;;;20.23;12.57;;;;;;;-144.57;100.00;62443.72;5024639;28;20520;-63
2023/04/13 05:57:36;;;;;;;23.57;11.80;;;;;;;-144.57;100.00;62443.72;5051949;28;20041;-65
2023/04/13 06:00:10;;;;;;;26.33;11.77;;;;;;;-144.57;100.00;62443.72;5019471;28;20045;-66
2023/04/13 06:02:40;;;;;;;16.85;11.35;;;;;;;-144.57;100.00;62443.72;5051975;28;20049;-65
2023/04/13 06:05:09;;;;;;;27.38;12.70;;;;;;;-144.57;100.00;62443.72;5044693;28;20044;-64
2023/04/13 06:07:34;;;;;;;27.30;12.65;;;;;;;-144.57;100.00;62443.72;5071956;28;20453;-67
2023/04/13 06:10:01;;;;;;;21.92;11.13;;;;;;;-144.57;100.00;62443.72;5066338;28;20148;-63
2023/04/13 06:12:27;;;;;;;17.40;11.38;;;;;;;-144.57;100.00;62443.72;5030714;28;20032;-65
2023/04/13 06:14:53;;;;;;;17.98;11.90;;;;;;;-144.57;100.00;62443.72;5059703;28;20060;-63
2023/04/13 06:17:18;;;;;;;26.40;11.77;;;;;;;-144.57;100.00;62443.72;5062508;28;20071;-64
2023/04/13 06:19:44;;;;;;;18.70;11.02;;;;;;;-144.57;100.00;62443.72;5061037;28;20132;-65
2023/04/13 06:22:10;;;;;;;15.80;10.88;;;;;;;-144.57;100.00;62443.72;5062457;28;20054;-65
2023/04/13 06:24:38;;;;;;;23.23;11.77;;;;;;;-144.57;100.00;62443.72;5059425;28;20036;-65
2023/04/13 06:27:07;;;;;;;24.85;12.15;;;;;;;-144.57;100.00;62443.72;5053388;28;20044;-65
2023/04/13 06:29:33;;;;;;;22.00;11.27;;;;;;;-144.57;100.00;62443.72;5059839;28;20040;-64
2023/04/13 06:32:06;;;;;;;19.52;12.15;;;;;;;-144.57;100.00;62443.72;5045732;28;20415;-64
2023/04/13 06:34:33;;;;;;;15.27;10.43;;;;;;;-144.57;100.00;62443.72;5027541;28;20102;-66
2023/04/13 06:37:00;;;;;;;16.95;11.30;;;;;;;-144.57;100.00;62443.72;5059221;28;20047;-66
2023/04/13 06:39:30;;;;;;;16.00;10.65;;;;;;;-144.57;100.00;62443.72;5050458;28;20048;-65
2023/04/13 06:42:00;;;;;;;30.02;12.65;;;;;;;-144.57;100.00;62443.72;5072001;28;20052;-63
2023/04/13 06:44:56;;;;;;;17.67;11.05;;;;;;;-144.57;100.00;62443.72;5070205;28;20082;-64
2023/04/13 06:47:22;;;;;;;18.48;11.20;;;;;;;-144.57;100.00;62443.72;5036973;28;20044;-64
2023/04/13 06:49:48;;;;;;;15.63;10.75;;;;;;;-144.57;100.00;62443.72;5051656;28;20061;-65
2023/04/13 06:52:15;;;;;;;17.42;10.75;;;;;;;-144.57;100.00;62443.72;5070349;28;20036;-63
2023/04/13 06:54:42;;;;;;;25.13;11.68;;;;;;;-144.57;100.00;62443.72;5071336;28;20052;-66
2023/04/13 06:57:19;;;;;;;16.08;9.57;;;;;;;-144.57;100.00;62443.72;5019389;28;20045;-67
2023/04/13 06:59:45;;;;;;;17.33;11.60;;;;;;;-144.57;100.00;62443.72;5046461;28;20072;-65
2023/04/13 07:02:11;;;;;;;17.92;11.52;;;;;;;-144.57;100.00;62443.72;5067394;28;20041;-66
2023/04/13 07:04:37;;;;;;;22.30;11.55;;;;;;;-144.57;100.00;62443.72;5068284;28;20071;-65
2023/04/13 07:07:03;;;;;;;22.55;12.23;;;;;;;-144.57;100.00;62443.72;5067362;28;20403;-64
2023/04/13 07:09:31;;;;;;;13.93;10.75;;;;;;;-144.57;100.00;62443.72;5070257;28;20047;-64
2023/04/13 07:12:02;;;;;;;19.60;10.75;;;;;;;-144.57;100.00;62443.72;5069660;28;20051;-66
2023/04/13 07:14:32;;;;;;;15.98;10.35;;;;;;;-144.57;100.00;62443.72;5069876;28;20512;-65
2023/04/13 07:16:58;;;;;;;18.45;9.77;;;;;;;-144.57;100.00;62443.72;5069493;28;20139;-64
2023/04/13 07:19:24;;;;;;;13.20;10.55;;;;;;;-144.57;100.00;62443.72;5069256;28;20123;-64
2023/04/13 07:21:50;;;;;;;23.85;10.57;;;;;;;-144.57;100.00;62443.72;5048529;28;20072;-67
2023/04/13 07:24:16;;;;;;;18.70;8.55;;;;;;;-144.57;100.00;62443.72;5031969;28;20081;-65
2023/04/13 07:26:43;;;;;;;11.57;7.68;;;;;;;-144.57;100.00;62443.72;5063786;28;20915;-64
2023/04/13 07:29:12;;;;;;;13.13;8.48;;;;;;;-144.57;100.00;62443.72;5068670;28;20083;-65
2023/04/13 07:31:39;;;;;;;;;;;;;;;-144.57;100.00;62443.72;5069508;28;20425;-65
2023/04/13 07:34:05;;;;;;;25.48;8.15;;;;;;;-144.57;100.00;62443.72;5068420;28;19931;-64
2023/04/13 07:36:37;;;;;;;23.20;7.93;;;;;;;-144.57;100.00;62443.72;5068525;28;20040;-65
2023/04/13 07:39:10;;;;;;;11.25;7.03;;;;;;;-144.57;100.00;62443.72;5050691;28;20105;-66
2023/04/13 07:41:38;;;;;;;12.25;6.90;;;;;;;-144.57;100.00;62443.72;5051452;28;20472;-65
2023/04/13 07:44:07;;;;;;;10.50;6.25;;;;;;;-144.57;100.00;62443.72;5052202;28;20048;-65
2023/04/13 07:46:33;;;;;;;20.88;6.60;;;;;;;-144.57;100.00;62443.72;5032393;28;20123;-64
2023/04/13 07:48:59;;;;;;;14.63;6.38;;;;;;;-144.57;100.00;62443.72;5048777;28;20132;-63
2023/04/13 07:51:31;;;;;;;9.50;5.50;;;;;;;-144.57;100.00;62443.72;5046708;28;20051;-64
2023/04/13 07:53:57;;;;;;;16.48;5.32;;;;;;;-144.57;100.00;62443.72;5035855;28;20480;-64
2023/04/13 07:56:25;;;;;;;13.68;5.00;;;;;;;-144.57;100.00;62443.72;5050217;28;20406;-65
2023/04/13 07:58:52;;;;;;;11.20;4.88;;;;;;;-144.57;100.00;62443.72;5050686;28;20535;-63
2023/04/13 08:01:18;;;;;;;23.48;6.05;;;;;;;-144.57;100.00;62443.72;5068471;28;20044;-65
2023/04/13 08:03:44;;;;;;;13.43;5.93;;;;;;;-144.57;100.00;62443.72;5067204;28;20044;-64
2023/04/13 08:06:19;;;;;;;14.05;5.18;;;;;;;-144.57;100.00;62443.72;5068367;28;20075;-64
2023/04/13 08:08:46;;;;;;;17.57;4.70;;;;;;;-144.57;100.00;62443.72;5050524;28;20045;-64
2023/04/13 08:11:11;;;;;;;12.10;5.03;;;;;;;-144.57;100.00;62443.72;5066974;28;20291;-65
2023/04/13 08:13:39;;;;;;;8.93;3.80;;;;;;;-144.57;100.00;62443.72;5068701;28;20063;-65
2023/04/13 08:16:07;;;;;;;9.90;3.60;;;;;;;-144.57;100.00;62443.72;5067211;28;20044;-64
2023/04/13 08:18:33;;;;;;;17.58;5.03;;;;;;;-144.57;100.00;62443.72;5018582;28;20070;-66
2023/04/13 08:20:59;;;;;;;7.25;3.42;;;;;;;-144.57;100.00;62443.72;5046755;28;20045;-66
2023/04/13 08:23:28;;;;;;;16.13;4.75;;;;;;;-144.57;100.00;62443.72;5014472;28;20080;-66
2023/04/13 08:25:55;;;;;;;21.75;4.75;;;;;;;-144.57;100.00;62443.72;5041175;28;20037;-65
2023/04/13 08:28:21;;;;;;;6.25;4.05;;;;;;;-144.57;100.00;62443.72;5051478;28;20044;-67
2023/04/13 08:30:47;;;;;;;30.17;6.90;;;;;;;-144.57;100.00;62443.72;5069484;28;20040;-64
2023/04/13 08:33:13;;;;;;;25.63;5.70;;;;;;;-144.57;100.00;62443.72;5051251;28;20041;-66
2023/04/13 08:35:39;;;;;;;8.23;3.92;;;;;;;-144.57;100.00;62443.72;5050263;28;20105;-67
2023/04/13 08:38:09;;;;;;;10.50;3.80;;;;;;;-144.57;100.00;62443.72;5050637;28;20049;-67
2023/04/13 08:40:39;;;;;;;7.32;3.67;;;;;;;-144.57;100.00;62443.72;5068157;28;20075;-64
2023/04/13 08:43:08;;;;;;;25.58;6.35;;;;;;;-144.57;100.00;62443.72;5051457;28;20036;-67
2023/04/13 08:45:35;;;;;;;15.93;4.68;;;;;;;-144.57;100.00;62443.72;5067606;28;20490;-66
2023/04/13 08:48:01;;;;;;;20.73;4.97;;;;;;;-144.57;100.00;62443.72;5049591;28;20167;-66
2023/04/13 08:50:29;;;;;;;14.07;4.22;;;;;;;-144.57;100.00;62443.72;5071080;28;20052;-66
2023/04/13 08:52:58;;;;;;;9.70;4.22;;;;;;;-144.57;100.00;62443.72;5054122;28;20147;-67
2023/04/13 08:55:25;;;;;;;6.05;3.85;;;;;;;-144.57;100.00;62443.72;5071101;28;20056;-66
2023/04/13 08:57:56;;;;;;;15.45;4.38;;;;;;;-144.57;100.00;62443.72;5071041;28;20040;-67
2023/04/13 09:00:23;;;;;;;8.48;4.53;;;;;;;-144.57;100.00;62443.72;5069978;28;20494;-66
2023/04/13 09:02:57;;;;;;;9.77;4.32;;;;;;;-144.57;100.00;62443.72;5070395;28;20040;-66
2023/04/13 09:05:25;;;;;;;15.20;4.53;;;;;;;-144.57;100.00;62443.72;5050671;28;20098;-67
2023/04/13 09:07:55;;;;;;;9.00;4.28;;;;;;;-144.57;100.00;62443.72;5065478;28;20044;-66
2023/04/13 09:10:22;;;;;;;12.30;4.88;;;;;;;-144.57;100.00;62443.72;5071032;28;20525;-66
2023/04/13 09:12:50;;;;;;;9.07;3.85;;;;;;;-144.57;100.00;62443.72;5054270;28;20383;-67
2023/04/13 09:15:16;;;;;;;8.40;4.43;;;;;;;-144.57;100.00;62443.72;5070597;28;20383;-66
2023/04/13 09:17:51;;;;;;;9.75;3.42;;;;;;;-144.57;100.00;62443.72;5071197;28;20386;-65
2023/04/13 09:20:21;;;;;;;5.20;4.10;;;;;;;-144.57;100.00;62443.72;5070802;28;20048;-65
2023/04/13 09:22:51;;;;;;;4.38;3.42;;;;;;;-144.57;100.00;62443.72;5070977;28;20086;-66
2023/04/13 09:25:26;;;;;;;10.20;3.65;;;;;;;-144.57;100.00;62443.72;5070868;28;20043;-66
2023/04/13 09:27:53;;;;;;;15.75;3.92;;;;;;;-144.57;100.00;62443.72;5071033;28;20382;-65
2023/04/13 09:30:23;;;;;;;11.35;4.05;;;;;;;-144.57;100.00;62443.72;5070726;28;20048;-66
2023/04/13 09:33:03;;;;;;;8.20;3.53;;;;;;;-144.57;100.00;62443.72;5054153;28;20097;-64
2023/04/13 09:35:31;;;;;;;9.50;3.80;;;;;;;-144.57;100.00;62443.72;5054321;28;20044;-66
2023/04/13 09:37:57;;;;;;;6.88;3.90;;;;;;;-144.57;100.00;62443.72;5054618;28;20083;-66
2023/04/13 09:40:23;;;;;;;5.93;3.55;;;;;;;-144.57;100.00;62443.72;5071967;28;20044;-64
2023/04/13 09:43:01;;;;;;;6.35;3.13;;;;;;;-144.57;100.00;62443.72;5072297;28;20049;-67
2023/04/13 09:45:36;;;;;;;5.88;3.58;;;;;;;-144.57;100.00;62443.72;5050327;28;20045;-65
2023/04/13 09:48:20;;;;;;;4.60;3.08;;;;;;;-144.57;100.00;62443.72;5050317;28;20144;-65
2023/04/13 09:51:00;;;;;;;6.57;3.83;;;;;;;-144.57;100.00;62443.72;5059133;28;20040;-66
2023/04/13 09:53:28;;;;;;;9.88;3.30;;;;;;;-144.57;100.00;62443.72;5071841;28;20052;-65
2023/04/13 09:55:57;;;;;;;6.07;3.58;;;;;;;-144.57;100.00;62443.72;5069948;28;20040;-66
2023/04/13 09:58:24;;;;;;;4.07;3.55;;;;;;;-144.57;100.00;62443.72;5071059;28;20148;-65
2023/04/13 10:00:50;;;;;;;4.57;3.30;;;;;;;-144.57;100.00;62443.72;5048617;28;20041;-66
2023/04/13 10:03:19;;;;;;;5.50;3.50;;;;;;;-144.57;100.00;62443.72;5051048;28;20040;-68
2023/04/13 10:05:46;;;;;;;4.18;2.92;;;;;;;-144.57;100.00;62443.72;5058147;28;20122;-65
2023/04/13 10:08:12;;;;;;;5.25;3.30;;;;;;;-144.57;100.00;62443.72;5070286;28;20456;-66
2023/04/13 10:10:38;;;;;;;6.22;3.97;;;;;;;-144.57;100.00;62443.72;5070964;28;20090;-65
2023/04/13 10:13:25;;;;;;;5.18;3.33;;;;;;;-144.57;100.00;62443.72;5069315;28;20036;-65
2023/04/13 10:15:54;;;;;;;3.95;2.88;;;;;;;-144.57;100.00;62443.72;5058995;28;20032;-64
2023/04/13 10:18:29;;;;;;;8.90;3.70;;;;;;;-144.57;100.00;62443.72;5060408;28;20049;-64
2023/04/13 10:20:57;;;;;;;4.00;3.22;;;;;;;-144.57;100.00;62443.72;5061644;28;20131;-64
2023/04/13 10:23:23;;;;;;;3.97;3.00;;;;;;;-144.57;100.00;62443.72;5044202;28;20041;-63
2023/04/13 10:25:50;;;;;;;7.00;3.03;;;;;;;-144.57;100.00;62443.72;5072257;28;20044;-64
2023/04/13 10:28:17;;;;;;;4.78;2.90;;;;;;;-144.57;100.00;62443.72;5071381;28;20040;-65
2023/04/13 10:31:01;;;;;;;6.22;3.15;;;;;;;-144.57;100.00;62443.72;5068406;28;20051;-65
2023/04/13 10:33:30;;;;;;;9.10;3.63;;;;;;;-144.57;100.00;62443.72;5071238;28;20416;-64
2023/04/13 10:35:58;;;;;;;4.28;3.45;;;;;;;-144.57;100.00;62443.72;5070716;28;20440;-64
2023/04/13 10:38:24;;;;;;;14.77;6.70;;;;;;;-144.57;100.00;62443.72;5070752;28;20131;-65
2023/04/13 10:40:50;;;;;;;7.25;3.67;;;;;;;-144.57;100.00;62443.72;5072053;28;20136;-65
2023/04/13 10:43:28;;;;;;;4.25;3.03;;;;;;;-144.57;100.00;62443.72;5053377;28;20052;-64
2023/04/13 10:46:09;;;;;;;5.82;3.10;;;;;;;-144.57;100.00;62443.72;5069998;28;20098;-66
2023/04/13 10:48:36;;;;;;;5.07;3.15;;;;;;;-144.57;100.00;62443.72;5067320;28;20029;-65
2023/04/13 10:51:02;;;;;;;4.63;2.75;;;;;;;-144.57;100.00;62443.72;5069340;28;20105;-65
2023/04/13 10:53:41;;;;;;;4.50;3.30;;;;;;;-144.57;100.00;62443.72;5070995;28;20036;-63
2023/04/13 10:56:16;;;;;;;3.25;2.92;;;;;;;-144.57;100.00;62443.72;5031006;28;20076;-65
2023/04/13 10:58:42;;;;;;;7.25;3.35;;;;;;;-144.57;100.00;62443.72;5046260;28;20126;-66
2023/04/13 11:01:09;;;;;;;9.15;3.47;;;;;;;-144.57;100.00;62443.72;5058159;28;20072;-65
2023/04/13 11:03:36;;;;;;;7.03;3.13;;;;;;;-144.57;100.00;62443.72;5070468;28;20097;-65
2023/04/13 11:06:02;;;;;;;5.90;3.53;;;;;;;-144.57;100.00;62443.72;5068003;28;20044;-66
2023/04/13 11:08:29;;;;;;;8.38;3.67;;;;;;;-144.57;100.00;62443.72;5067895;28;20067;-65